Time;durP1;ratioP1;P1;durP2;ratioP2;P2;SDS_P1;SDS_P2;PMS_P1;PMS_P2;Temp;Humidity;BMP_temperature;BMP_pressure;BME280_temperature;BME280_humidity;BME280_pressure;Samples;Min_cycle;Max_cycle;Signal;HPM_P1;HPM_P2
2023/04/01 00:01:21;;;;;;;17.13;12.37;;;;;;;9.21;69.15;96254.53;5067403;28;20200;-77
2023/04/01 00:03:48;;;;;;;16.73;12.33;;;;;;;9.23;69.33;96250.16;5067243;28;20243;-77
2023/04/01 00:06:18;;;;;;;18.77;13.17;;;;;;;9.32;68.66;96249.63;5067230;28;20188;-78
2023/04/01 00:08:46;;;;;;;18.13;13.90;;;;;;;9.45;67.97;96245.50;5067716;28;20213;-79
2023/04/01 00:11:14;;;;;;;16.10;12.10;;;;;;;9.45;67.50;96237.75;5067085;28;20189;-76
2023/04/01 00:13:42;;;;;;;16.00;11.90;;;;;;;9.42;67.60;96243.06;5067358;28;20230;-77
2023/04/01 00:16:09;;;;;;;17.77;12.53;;;;;;;9.43;67.73;96230.97;5068142;28;20189;-73
2023/04/01 00:18:49;;;;;;;16.47;12.57;;;;;;;9.53;67.46;96235.56;5067934;28;20235;-77
2023/04/01 00:21:18;;;;;;;19.97;12.77;;;;;;;9.37;67.52;96224.41;5066604;28;20232;-78
2023/04/01 00:23:45;;;;;;;17.57;13.07;;;;;;;9.40;66.70;96229.38;5066940;28;20186;-77
2023/04/01 00:26:12;;;;;;;19.37;12.53;;;;;;;9.33;67.37;96238.41;5067646;28;20231;-77
2023/04/01 00:28:40;;;;;;;17.43;11.90;;;;;;;9.37;66.69;96239.91;5066413;28;20185;-77
2023/04/01 00:31:09;;;;;;;18.53;12.20;;;;;;;9.43;66.74;96237.00;5067614;28;20247;-76
2023/04/01 00:33:37;;;;;;;15.50;10.93;;;;;;;9.35;66.93;96231.41;5084487;28;20205;-78
2023/04/01 00:36:09;;;;;;;14.73;10.53;;;;;;;9.28;67.45;96235.22;5073786;28;20701;-78
2023/04/01 00:38:37;;;;;;;13.70;9.90;;;;;;;9.27;67.47;96227.56;5083130;28;20738;-77
2023/04/01 00:41:05;;;;;;;15.80;9.90;;;;;;;9.13;67.78;96217.94;5070793;28;20189;-78
2023/04/01 00:43:33;;;;;;;15.77;10.57;;;;;;;9.12;68.10;96229.22;5087816;28;20207;-79
2023/04/01 00:46:00;;;;;;;14.37;9.93;;;;;;;8.87;68.96;96224.50;5067928;28;20744;-78
2023/04/01 00:48:34;;;;;;;15.40;11.07;;;;;;;8.97;68.90;96219.69;5087286;28;20211;-79
2023/04/01 00:51:14;;;;;;;15.67;11.43;;;;;;;8.96;69.28;96213.66;5086734;28;20193;-78
2023/04/01 00:53:48;;;;;;;14.93;10.90;;;;;;;9.01;69.15;96216.00;5068528;28;20671;-76
2023/04/01 00:56:26;;;;;;;15.40;9.83;;;;;;;8.82;69.64;96212.75;5052558;28;20204;-78
2023/04/01 00:59:00;;;;;;;15.67;10.10;;;;;;;8.79;70.41;96202.56;5066479;28;20258;-77
2023/04/01 01:01:30;;;;;;;14.00;10.90;;;;;;;8.75;69.42;96201.06;5049298;28;20913;-77
2023/04/01 01:03:57;;;;;;;12.10;9.37;;;;;;;8.68;69.56;96179.06;5048295;28;20182;-75
2023/04/01 01:07:00;;;;;;;16.87;12.10;;;;;;;8.97;69.75;96183.53;5048655;28;20201;-77
2023/04/01 01:09:45;;;;;;;12.73;9.60;;;;;;;8.91;69.27;96195.03;5053870;28;20284;-77
2023/04/01 01:12:23;;;;;;;14.27;10.50;;;;;;;8.88;69.01;96169.34;5048265;28;20189;-80
2023/04/01 01:15:47;;;;;;;16.57;10.77;;;;;;;8.87;69.89;96183.19;5054289;28;20571;-78
2023/04/01 01:18:43;;;;;;;11.80;9.33;;;;;;;8.48;71.33;96185.25;4985345;28;20701;-79
2023/04/01 01:21:35;;;;;;;14.40;10.07;;;;;;;8.62;70.78;96179.38;4984702;28;20310;-76
2023/04/01 01:24:05;;;;;;;15.00;10.13;;;;;;;8.62;70.97;96171.63;5064791;28;20817;-79
2023/04/01 01:26:57;;;;;;;16.70;9.67;;;;;;;8.59;71.49;96182.13;5066369;28;20710;-80
2023/04/01 01:29:36;;;;;;;16.07;10.33;;;;;;;8.64;71.10;96175.81;5047981;28;20213;-75
2023/04/01 01:32:22;;;;;;;15.17;9.53;;;;;;;8.59;71.09;96177.81;5048661;28;20185;-78
2023/04/01 01:35:16;;;;;;;20.00;11.03;;;;;;;8.22;72.76;96165.91;5031820;28;20189;-78
2023/04/01 01:37:45;;;;;;;14.10;9.73;;;;;;;8.13;72.71;96171.53;5066094;28;20231;-77
2023/04/01 01:40:15;;;;;;;13.37;10.60;;;;;;;8.13;72.55;96176.69;5066430;28;20705;-79
2023/04/01 01:42:50;;;;;;;13.80;11.17;;;;;;;7.96;73.92;96175.84;5065537;28;20235;-78
2023/04/01 01:45:21;;;;;;;15.23;11.10;;;;;;;7.87;74.04;96177.13;5048335;28;20777;-78
2023/04/01 01:47:49;;;;;;;15.30;10.10;;;;;;;7.91;73.39;96178.63;5047979;28;20222;-78
2023/04/01 01:50:18;;;;;;;14.10;10.10;;;;;;;7.83;74.86;96174.81;5047898;28;20193;-77
2023/04/01 01:52:45;;;;;;;14.77;10.27;;;;;;;7.75;74.50;96182.06;5048262;28;20186;-75
2023/04/01 01:55:35;;;;;;;14.17;9.83;;;;;;;7.62;75.44;96158.63;5047718;28;20197;-76
2023/04/01 01:58:30;;;;;;;14.77;9.83;;;;;;;7.76;75.38;96171.69;5048435;28;20216;-77
2023/04/01 02:01:01;;;;;;;14.90;9.30;;;;;;;7.73;76.11;96165.84;5051608;28;20204;-76
2023/04/01 02:03:32;;;;;;;12.77;9.47;;;;;;;7.78;75.88;96166.44;5084993;28;20208;-77
2023/04/01 02:06:01;;;;;;;16.03;10.90;;;;;;;7.78;75.37;96150.97;5078871;28;20206;-75
2023/04/01 02:08:44;;;;;;;13.17;10.10;;;;;;;7.81;75.68;96140.53;5070837;28;20195;-77
2023/04/01 02:11:15;;;;;;;15.10;9.83;;;;;;;7.90;75.25;96145.22;5072433;28;20199;-76
2023/04/01 02:13:57;;;;;;;17.00;9.80;;;;;;;8.08;74.02;96152.88;5071393;28;20184;-76
2023/04/01 02:16:47;;;;;;;15.70;10.20;;;;;;;8.19;73.66;96142.03;5060127;28;20195;-74
2023/04/01 02:19:22;;;;;;;16.10;10.23;;;;;;;8.38;73.56;96132.47;5071684;28;20212;-77
2023/04/01 02:21:59;;;;;;;14.13;10.70;;;;;;;8.40;72.68;96134.97;5067470;28;20307;-76
2023/04/01 02:24:30;;;;;;;16.73;10.20;;;;;;;8.44;72.51;96128.72;5069106;28;20189;-77
2023/04/01 02:26:57;;;;;;;21.30;10.83;;;;;;;8.40;72.96;96119.47;5067683;28;20664;-75
2023/04/01 02:29:25;;;;;;;15.73;9.97;;;;;;;8.44;73.01;96124.41;5055906;28;20204;-78
2023/04/01 02:31:53;;;;;;;15.07;10.30;;;;;;;8.61;71.64;96121.78;5048124;28;20186;-78
2023/04/01 02:34:23;;;;;;;14.87;9.77;;;;;;;8.63;71.15;96121.69;5047240;28;20566;-80
2023/04/01 02:36:51;;;;;;;14.23;9.53;;;;;;;8.63;70.96;96126.88;5047924;28;20181;-79
2023/04/01 02:39:18;;;;;;;15.67;10.50;;;;;;;8.41;71.94;96123.75;5048656;28;20234;-79
2023/04/01 02:41:46;;;;;;;19.27;11.87;;;;;;;8.48;72.35;96130.25;5048766;28;20198;-79
2023/04/01 02:44:14;;;;;;;16.43;11.57;;;;;;;8.50;72.07;96131.84;5047559;28;20609;-80
2023/04/01 02:46:43;;;;;;;13.33;11.03;;;;;;;8.56;71.92;96130.66;5047150;28;20281;-78
2023/04/01 02:49:10;;;;;;;15.67;10.87;;;;;;;8.60;71.38;96116.69;5049424;28;20617;-79
2023/04/01 02:51:37;;;;;;;18.20;12.13;;;;;;;8.72;70.90;96129.78;5047146;28;20194;-81
2023/04/01 02:54:05;;;;;;;21.93;13.03;;;;;;;8.53;70.74;96136.81;5049071;28;20190;-78
2023/04/01 02:56:32;;;;;;;18.03;12.73;;;;;;;8.41;71.20;96142.63;5048136;28;20673;-79
2023/04/01 02:58:59;;;;;;;21.80;11.80;;;;;;;8.38;71.40;96144.53;5049166;28;20229;-75
2023/04/01 03:01:26;;;;;;;19.43;13.77;;;;;;;8.40;71.61;96129.81;5047913;28;20704;-79
2023/04/01 03:03:53;;;;;;;20.97;14.03;;;;;;;8.35;70.50;96127.47;5048650;28;20302;-77
2023/04/01 03:06:20;;;;;;;20.13;12.20;;;;;;;8.26;70.80;96129.69;5048683;28;20182;-79
2023/04/01 03:08:47;;;;;;;19.03;11.87;;;;;;;7.94;71.56;96105.50;5049744;28;20217;-75
2023/04/01 03:11:14;;;;;;;14.40;10.53;;;;;;;7.89;71.94;96133.25;5048461;28;20204;-77
2023/04/01 03:13:41;;;;;;;15.07;10.80;;;;;;;7.89;72.68;96144.38;5046577;28;20704;-77
2023/04/01 03:16:10;;;;;;;17.43;12.50;;;;;;;8.03;72.23;96136.81;5046795;28;20649;-78
2023/04/01 03:18:37;;;;;;;21.53;11.00;;;;;;;8.13;70.76;96121.69;5046750;28;20715;-75
2023/04/01 03:21:22;;;;;;;15.03;10.80;;;;;;;8.29;71.11;96121.78;5060228;28;20262;-74
2023/04/01 03:23:49;;;;;;;16.63;11.20;;;;;;;8.20;70.51;96118.72;5070447;28;20639;-74
2023/04/01 03:26:17;;;;;;;16.20;11.70;;;;;;;8.05;71.02;96119.53;5087570;28;20235;-76
2023/04/01 03:28:44;;;;;;;14.47;10.60;;;;;;;8.05;70.71;96103.22;5053524;28;20636;-72
2023/04/01 03:31:11;;;;;;;18.23;11.23;;;;;;;8.15;71.27;96125.03;5069886;28;20603;-74
2023/04/01 03:33:45;;;;;;;16.10;11.17;;;;;;;8.26;71.50;96121.94;5069908;28;20233;-77
2023/04/01 03:36:13;;;;;;;16.43;11.00;;;;;;;8.20;71.22;96103.25;5087924;28;20204;-75
2023/04/01 03:38:40;;;;;;;18.33;10.93;;;;;;;8.15;70.71;96100.09;5069392;28;20224;-78
2023/04/01 03:41:13;;;;;;;14.33;9.53;;;;;;;8.15;71.25;96107.00;5088262;28;20275;-78
2023/04/01 03:43:40;;;;;;;14.73;10.23;;;;;;;8.04;71.38;96122.16;5069140;28;20193;-74
2023/04/01 03:46:07;;;;;;;16.87;11.10;;;;;;;7.50;73.40;96099.94;5069744;28;20200;-76
2023/04/01 03:48:35;;;;;;;18.97;11.80;;;;;;;7.36;74.19;96108.34;5069487;28;20222;-73
2023/04/01 03:51:06;;;;;;;15.07;10.37;;;;;;;7.13;75.72;96090.59;5087810;28;20745;-75
2023/04/01 03:53:33;;;;;;;13.80;9.70;;;;;;;7.18;76.17;96103.25;5069690;28;20188;-77
2023/04/01 03:56:08;;;;;;;14.30;9.27;;;;;;;7.16;75.38;96100.75;5069258;28;20545;-78
2023/04/01 03:58:36;;;;;;;15.80;9.97;;;;;;;7.29;75.67;96090.72;5070470;28;20230;-73
2023/04/01 04:01:14;;;;;;;11.50;8.50;;;;;;;7.59;74.90;96101.25;5069197;28;20245;-76
2023/04/01 04:03:41;;;;;;;11.40;7.87;;;;;;;7.66;75.00;96080.28;5069427;28;20188;-74
2023/04/01 04:06:11;;;;;;;12.83;8.97;;;;;;;7.82;73.68;96088.06;5069300;28;20192;-72
2023/04/01 04:08:38;;;;;;;14.50;9.90;;;;;;;7.68;74.10;96083.63;5068942;28;20278;-75
2023/04/01 04:11:05;;;;;;;15.10;10.00;;;;;;;7.55;74.67;96073.97;5087713;28;20189;-75
2023/04/01 04:13:36;;;;;;;13.50;9.43;;;;;;;7.66;75.41;96090.59;5068739;28;20199;-76
2023/04/01 04:16:04;;;;;;;14.93;10.47;;;;;;;7.88;73.90;96098.91;5069596;28;20575;-76
2023/04/01 04:18:32;;;;;;;15.93;10.87;;;;;;;8.06;73.86;96097.97;5068437;28;20232;-73
2023/04/01 04:21:00;;;;;;;16.37;10.53;;;;;;;8.03;72.97;96093.00;5068279;28;20322;-78
2023/04/01 04:23:33;;;;;;;18.23;12.03;;;;;;;8.26;73.60;96098.72;5068874;28;20188;-75
2023/04/01 04:26:06;;;;;;;18.43;11.70;;;;;;;8.35;72.94;96095.66;5102293;28;20193;-76
2023/04/01 04:28:34;;;;;;;19.90;12.17;;;;;;;8.40;72.68;96101.44;5064373;28;20242;-75
2023/04/01 04:31:02;;;;;;;18.60;11.93;;;;;;;8.38;71.96;96088.63;5087669;28;20226;-76
2023/04/01 04:33:29;;;;;;;19.03;12.07;;;;;;;8.40;71.83;96093.69;5052407;28;20232;-77
2023/04/01 04:35:57;;;;;;;15.00;11.23;;;;;;;8.35;72.54;96103.41;5086678;28;20200;-76
2023/04/01 04:38:25;;;;;;;17.90;11.47;;;;;;;8.35;72.85;96096.50;5063876;28;20262;-77
2023/04/01 04:40:53;;;;;;;21.80;12.20;;;;;;;8.13;73.34;96099.34;5048696;28;20310;-73
2023/04/01 04:43:20;;;;;;;25.67;16.10;;;;;;;7.85;74.28;96093.88;5067781;28;20227;-75
2023/04/01 04:45:48;;;;;;;30.77;16.70;;;;;;;7.77;75.64;96092.63;5068749;28;20282;-76
2023/04/01 04:48:18;;;;;;;28.37;16.70;;;;;;;7.89;74.19;96077.34;5068113;28;20192;-78
2023/04/01 04:50:48;;;;;;;22.00;14.63;;;;;;;8.04;75.13;96080.91;5086922;28;20185;-74
2023/04/01 04:53:18;;;;;;;22.70;14.57;;;;;;;7.89;75.46;96081.69;5068319;28;20263;-77
2023/04/01 04:55:47;;;;;;;18.80;12.07;;;;;;;7.84;75.49;96078.50;5086649;28;20724;-76
2023/04/01 04:58:33;;;;;;;15.73;10.87;;;;;;;7.68;76.47;96065.56;5086475;28;20798;-76
2023/04/01 05:01:12;;;;;;;13.70;9.50;;;;;;;7.84;76.48;96058.72;5068099;28;20255;-77
2023/04/01 05:03:40;;;;;;;12.40;9.00;;;;;;;8.02;75.09;96065.53;5070606;28;20638;-77
2023/04/01 05:06:08;;;;;;;13.93;9.93;;;;;;;8.17;75.09;96061.31;5086061;28;20192;-76
2023/04/01 05:08:36;;;;;;;13.70;9.53;;;;;;;8.11;74.60;96059.06;5068260;28;20184;-76
2023/04/01 05:11:03;;;;;;;15.20;10.10;;;;;;;8.00;75.52;96059.63;5086231;28;20224;-75
2023/04/01 05:13:32;;;;;;;20.47;11.20;;;;;;;8.09;76.23;96054.00;5067920;28;20184;-76
2023/04/01 05:15:59;;;;;;;14.20;10.73;;;;;;;8.15;74.92;96042.53;5062935;28;20251;-76
2023/04/01 05:18:26;;;;;;;12.53;9.60;;;;;;;8.24;75.85;96045.44;5081643;28;20220;-76
2023/04/01 05:20:54;;;;;;;13.23;9.47;;;;;;;8.43;75.20;96039.38;5067030;28;20672;-72
2023/04/01 05:23:22;;;;;;;14.97;9.03;;;;;;;8.66;73.86;96044.94;5067630;28;20668;-76
2023/04/01 05:25:50;;;;;;;14.30;7.93;;;;;;;8.68;73.54;96053.44;5068383;28;20275;-75
2023/04/01 05:28:19;;;;;;;14.80;9.70;;;;;;;8.54;74.14;96034.44;5085979;28;20184;-78
2023/04/01 05:30:46;;;;;;;16.40;10.93;;;;;;;8.77;73.81;96041.78;5068023;28;20257;-74
2023/04/01 05:33:21;;;;;;;19.33;10.83;;;;;;;8.85;73.98;96044.78;5070790;28;20184;-73
2023/04/01 05:35:48;;;;;;;21.77;10.07;;;;;;;8.74;74.08;96031.59;5071098;28;20206;-76
2023/04/01 05:38:16;;;;;;;19.00;9.77;;;;;;;8.92;73.35;96041.75;5089656;28;20338;-76
2023/04/01 05:40:43;;;;;;;19.07;9.47;;;;;;;9.14;72.89;96046.59;5105132;28;20271;-78
2023/04/01 05:43:10;;;;;;;15.60;11.67;;;;;;;9.25;72.30;96039.06;5105487;28;20204;-76
2023/04/01 05:45:37;;;;;;;17.63;10.40;;;;;;;9.40;71.98;96043.34;5071081;28;20584;-75
2023/04/01 05:48:13;;;;;;;14.50;8.53;;;;;;;9.37;71.33;96030.63;5087883;28;20721;-76
2023/04/01 05:50:41;;;;;;;18.07;9.70;;;;;;;9.46;71.16;96030.06;5053656;28;20197;-77
2023/04/01 05:53:10;;;;;;;12.70;8.90;;;;;;;9.56;71.76;96038.16;5050561;28;20193;-79
2023/04/01 05:55:39;;;;;;;14.47;9.63;;;;;;;9.50;71.57;96044.47;5051448;28;20193;-76
2023/04/01 05:58:06;;;;;;;13.77;9.20;;;;;;;9.58;71.64;96044.88;5050995;28;20239;-78
2023/04/01 06:00:35;;;;;;;14.97;9.00;;;;;;;9.69;71.09;96047.69;5051717;28;20197;-75
2023/04/01 06:03:02;;;;;;;15.23;11.10;;;;;;;9.75;70.54;96049.06;5053179;28;20560;-73
2023/04/01 06:05:42;;;;;;;13.87;10.23;;;;;;;9.64;70.46;96047.09;5052325;28;20208;-77
2023/04/01 06:08:17;;;;;;;13.77;9.37;;;;;;;9.31;71.97;96028.38;5051470;28;20338;-75
2023/04/01 06:11:05;;;;;;;21.23;10.70;;;;;;;9.15;72.76;96043.06;5050576;28;20185;-75
2023/04/01 06:14:00;;;;;;;14.93;9.80;;;;;;;8.90;73.15;95996.31;5050970;28;20244;-73
2023/04/01 06:16:43;;;;;;;17.50;9.83;;;;;;;9.04;74.62;96035.09;5051117;28;20197;-76
2023/04/01 06:19:38;;;;;;;14.80;9.53;;;;;;;9.02;74.25;96026.63;5050403;28;20300;-75
2023/04/01 06:22:22;;;;;;;13.13;9.50;;;;;;;9.09;74.36;96022.75;5083061;28;20229;-74
2023/04/01 06:25:16;;;;;;;12.97;8.97;;;;;;;9.18;73.64;96022.25;5062300;28;20197;-78
2023/04/01 06:27:46;;;;;;;17.53;11.80;;;;;;;9.54;73.01;96020.13;5066839;28;20220;-78
2023/04/01 06:30:31;;;;;;;29.80;16.43;;;;;;;9.72;72.54;96013.06;5068177;28;20212;-74
2023/04/01 06:33:02;;;;;;;25.93;15.57;;;;;;;9.87;72.45;95995.81;5070135;28;20269;-75
2023/04/01 06:35:37;;;;;;;20.17;12.60;;;;;;;9.93;71.65;95990.28;5070536;28;20199;-77
2023/04/01 06:38:13;;;;;;;17.30;13.00;;;;;;;9.74;72.25;95967.28;5068625;28;20264;-75
2023/04/01 06:41:00;;;;;;;20.63;13.57;;;;;;;9.79;72.54;95989.34;5069129;28;20200;-76
2023/04/01 06:44:05;;;;;;;27.23;17.43;;;;;;;9.99;71.92;96000.25;5054598;28;20188;-76
2023/04/01 06:46:59;;;;;;;23.70;16.37;;;;;;;10.09;71.09;95962.56;5047623;28;20193;-78
2023/04/01 06:49:49;;;;;;;28.70;14.63;;;;;;;10.39;70.16;95996.94;5088569;28;20231;-79
2023/04/01 06:52:44;;;;;;;19.27;12.67;;;;;;;10.38;69.47;95977.16;5074471;28;20676;-78
2023/04/01 06:55:45;;;;;;;20.10;13.27;;;;;;;10.14;69.96;95969.13;5089801;28;20189;-75
2023/04/01 06:59:04;;;;;;;20.30;12.97;;;;;;;10.32;70.48;95964.59;5088428;28;20178;-77
2023/04/01 07:01:55;;;;;;;20.43;12.90;;;;;;;10.38;69.83;95965.06;5000739;28;20258;-74
2023/04/01 07:04:41;;;;;;;22.47;13.47;;;;;;;10.20;70.23;95932.53;5054589;28;20189;-78
2023/04/01 07:07:39;;;;;;;21.33;12.93;;;;;;;10.05;71.13;95959.34;5086302;28;20580;-73
2023/04/01 07:10:33;;;;;;;26.73;14.57;;;;;;;10.31;70.30;95987.06;5070288;28;20242;-75
2023/04/01 07:13:26;;;;;;;25.00;14.40;;;;;;;10.43;70.10;95982.88;5089039;28;20617;-74
2023/04/01 07:16:29;;;;;;;22.60;14.67;;;;;;;10.65;69.28;95972.84;5070535;28;20218;-78
2023/04/01 07:19:14;;;;;;;23.27;13.60;;;;;;;10.71;68.46;95977.66;5070551;28;20221;-76
2023/04/01 07:22:03;;;;;;;24.97;14.83;;;;;;;10.65;68.51;95945.19;5040349;28;20221;-77
2023/04/01 07:24:54;;;;;;;22.57;14.73;;;;;;;10.96;68.52;95982.94;5047604;28;20252;-75
2023/04/01 07:27:21;;;;;;;30.73;16.23;;;;;;;11.26;67.32;95957.63;5046369;28;20207;-79
2023/04/01 07:29:47;;;;;;;29.33;18.50;;;;;;;10.98;68.41;95956.94;5046780;28;20710;-79
2023/04/01 07:32:29;;;;;;;30.77;17.50;;;;;;;11.39;67.73;95968.84;5045996;28;20277;-73
2023/04/01 07:35:06;;;;;;;33.43;19.03;;;;;;;11.85;66.99;95971.81;5048461;28;20328;-77
2023/04/01 07:38:04;;;;;;;29.70;18.50;;;;;;;11.91;65.64;95971.38;5046034;28;20197;-76
2023/04/01 07:40:49;;;;;;;25.30;16.20;;;;;;;12.17;65.62;95969.63;5039538;28;20235;-78
2023/04/01 07:43:53;;;;;;;26.67;15.50;;;;;;;12.52;64.40;95983.56;5048575;28;20263;-77
2023/04/01 07:46:47;;;;;;;22.13;15.00;;;;;;;12.63;63.55;95967.25;5046351;28;20215;-75
2023/04/01 07:49:41;;;;;;;21.07;13.70;;;;;;;12.76;62.69;95966.25;5045641;28;20720;-75
2023/04/01 07:52:30;;;;;;;21.60;12.90;;;;;;;12.79;63.04;95963.44;5046088;28;20207;-77
2023/04/01 07:55:14;;;;;;;15.73;10.53;;;;;;;12.76;62.02;95945.47;5046104;28;20679;-73
2023/04/01 07:58:01;;;;;;;19.60;13.00;;;;;;;12.92;62.41;95959.00;5029367;28;20625;-76
2023/04/01 08:00:43;;;;;;;24.50;14.63;;;;;;;12.81;62.30;95960.72;5030325;28;20784;-73
2023/04/01 08:03:37;;;;;;;22.93;12.90;;;;;;;12.90;62.32;95947.88;5045638;28;20187;-78
2023/04/01 08:06:45;;;;;;;18.60;12.27;;;;;;;13.17;61.50;95968.47;5046179;28;20195;-74
2023/04/01 08:09:22;;;;;;;18.67;12.13;;;;;;;13.38;61.47;95932.25;5046698;28;20219;-77
2023/04/01 08:12:27;;;;;;;11.87;7.80;;;;;;;13.07;62.26;95944.09;5047206;28;20642;-80
2023/04/01 08:14:59;;;;;;;18.17;10.83;;;;;;;13.24;62.01;95956.69;5046914;28;20247;-74
2023/04/01 08:17:32;;;;;;;14.90;9.17;;;;;;;13.61;61.10;95950.44;5047887;28;20184;-75
2023/04/01 08:20:34;;;;;;;13.23;8.60;;;;;;;13.47;61.70;95942.84;5045219;28;20273;-79
2023/04/01 08:23:11;;;;;;;18.43;10.30;;;;;;;13.26;61.98;95915.81;5047695;28;20189;-79
2023/04/01 08:25:48;;;;;;;19.77;12.23;;;;;;;13.60;61.66;95903.72;5046515;28;20193;-79
2023/04/01 08:28:24;;;;;;;15.60;9.40;;;;;;;13.31;62.68;95915.47;5029892;28;20291;-77
2023/04/01 08:31:00;;;;;;;14.10;9.40;;;;;;;13.69;62.38;95921.22;5046411;28;20244;-78
2023/04/01 08:33:30;;;;;;;7.70;5.37;;;;;;;13.64;62.50;95918.16;5045692;28;20230;-77
2023/04/01 08:36:07;;;;;;;12.50;6.03;;;;;;;13.42;62.52;95902.50;5046310;28;20710;-76
2023/04/01 08:38:49;;;;;;;8.37;5.97;;;;;;;12.84;63.87;95870.38;5044744;28;20252;-80
2023/04/01 08:41:39;;;;;;;10.13;5.50;;;;;;;13.53;62.89;95900.75;5046250;28;20203;-79
2023/04/01 08:44:50;;;;;;;9.13;5.50;;;;;;;13.68;62.61;95893.56;5046655;28;20209;-74
2023/04/01 08:47:30;;;;;;;12.77;6.80;;;;;;;13.79;62.32;95880.53;5047889;28;20288;-75
2023/04/01 08:50:36;;;;;;;8.30;6.10;;;;;;;13.95;61.60;95875.81;5046689;28;20557;-76
2023/04/01 08:53:42;;;;;;;9.30;5.60;;;;;;;14.16;61.98;95875.91;5046640;28;20697;-74
2023/04/01 08:56:18;;;;;;;10.60;6.13;;;;;;;14.27;61.70;95861.13;5045956;28;20194;-78
2023/04/01 08:59:23;;;;;;;6.33;4.13;;;;;;;14.49;60.32;95876.72;5045555;28;20754;-74
2023/04/01 09:02:32;;;;;;;7.30;4.47;;;;;;;14.49;60.31;95866.31;5045721;28;20267;-76
2023/04/01 09:05:38;;;;;;;6.57;4.07;;;;;;;14.51;60.54;95864.41;5004619;28;20203;-79
2023/04/01 09:08:37;;;;;;;7.00;4.80;;;;;;;14.53;60.14;95846.03;5046630;28;20202;-75
2023/04/01 09:11:04;;;;;;;8.17;5.10;;;;;;;14.56;60.66;95851.84;5048551;28;20225;-76
2023/04/01 09:15:01;;;;;;;8.00;5.10;;;;;;;14.24;61.72;95842.31;5035034;28;20282;-75
2023/04/01 09:17:48;;;;;;;11.27;5.27;;;;;;;14.07;62.45;95832.38;5013583;28;20212;-74
2023/04/01 09:20:45;;;;;;;7.80;5.27;;;;;;;14.06;62.53;95836.75;5034523;28;20233;-78
2023/04/01 09:23:37;;;;;;;8.17;4.60;;;;;;;14.09;62.18;95818.31;5052925;28;20223;-76
2023/04/01 09:26:16;;;;;;;7.53;4.70;;;;;;;14.15;61.97;95822.19;5069488;28;20252;-75
2023/04/01 09:29:12;;;;;;;7.57;4.20;;;;;;;14.08;62.22;95819.25;5061831;28;20736;-74
2023/04/01 09:31:39;;;;;;;9.37;4.37;;;;;;;14.25;61.96;95799.69;5072043;28;20188;-75
2023/04/01 09:34:44;;;;;;;16.27;5.23;;;;;;;14.38;61.77;95801.22;5070970;28;20192;-75
2023/04/01 09:37:59;;;;;;;7.63;4.83;;;;;;;14.63;60.49;95780.03;5071119;28;20200;-74
2023/04/01 09:40:52;;;;;;;6.53;3.77;;;;;;;14.34;61.53;95781.56;5045753;28;20329;-78
2023/04/01 09:43:46;;;;;;;8.07;4.60;;;;;;;14.68;60.96;95787.47;5071409;28;20714;-79
2023/04/01 09:46:32;;;;;;;8.30;4.13;;;;;;;14.80;60.27;95783.84;5070867;28;20844;-79
2023/04/01 09:49:11;;;;;;;10.37;4.60;;;;;;;15.05;59.78;95799.13;5068619;28;20274;-75
2023/04/01 09:51:44;;;;;;;6.13;3.63;;;;;;;14.84;59.88;95787.06;5051238;28;20701;-75
2023/04/01 09:54:17;;;;;;;5.53;3.80;;;;;;;15.03;59.67;95790.59;5051476;28;20287;-77
2023/04/01 09:57:06;;;;;;;6.03;4.17;;;;;;;15.05;59.64;95795.69;5067959;28;20379;-77
2023/04/01 09:59:54;;;;;;;4.83;3.43;;;;;;;14.88;59.54;95785.84;5050323;28;20236;-75
2023/04/01 10:02:38;;;;;;;5.40;3.73;;;;;;;15.09;59.60;95779.66;5069044;28;20208;-76
2023/04/01 10:05:30;;;;;;;9.00;3.83;;;;;;;15.23;59.00;95761.06;5084161;28;20197;-79
2023/04/01 10:08:36;;;;;;;5.93;3.37;;;;;;;15.28;58.45;95763.31;5050556;28;20190;-73
2023/04/01 10:11:31;;;;;;;6.30;3.97;;;;;;;15.50;57.91;95744.88;5072035;28;20243;-76
2023/04/01 10:14:27;;;;;;;7.47;4.50;;;;;;;15.92;57.11;95733.34;5053879;28;20189;-74
2023/04/01 10:17:39;;;;;;;6.13;4.53;;;;;;;15.76;56.63;95720.00;5050279;28;20672;-76
2023/04/01 10:20:36;;;;;;;7.40;3.70;;;;;;;15.65;57.32;95712.25;5066317;28;20221;-75
2023/04/01 10:23:22;;;;;;;8.00;4.00;;;;;;;16.02;56.82;95715.91;5051050;28;20183;-78
2023/04/01 10:26:10;;;;;;;5.50;4.60;;;;;;;16.39;55.75;95723.91;5050368;28;20186;-79
2023/04/01 10:29:02;;;;;;;9.87;4.10;;;;;;;16.38;55.42;95721.44;5050584;28;20668;-78
2023/04/01 10:32:13;;;;;;;5.53;3.77;;;;;;;16.53;54.44;95725.31;5050759;28;20182;-78
2023/04/01 10:35:19;;;;;;;7.07;4.37;;;;;;;16.58;54.01;95728.34;5066984;28;20189;-80
2023/04/01 10:37:46;;;;;;;6.40;3.53;;;;;;;16.74;54.19;95707.69;5027630;28;20189;-76
2023/04/01 10:40:22;;;;;;;7.70;3.20;;;;;;;16.81;53.99;95712.22;5050512;28;20217;-79
2023/04/01 10:43:38;;;;;;;9.03;3.20;;;;;;;16.71;54.28;95702.75;5025313;28;20239;-76
2023/04/01 10:46:40;;;;;;;9.03;4.33;;;;;;;16.39;55.12;95691.72;5046678;28;20755;-77
2023/04/01 10:49:46;;;;;;;7.47;4.07;;;;;;;16.69;55.42;95678.53;5050563;28;20763;-77
2023/04/01 10:52:51;;;;;;;6.13;3.50;;;;;;;16.94;55.42;95681.34;5050370;28;20189;-76
2023/04/01 10:56:08;;;;;;;6.40;3.27;;;;;;;17.02;55.93;95667.59;5067908;28;20194;-78
2023/04/01 10:58:56;;;;;;;8.00;3.90;;;;;;;16.96;56.62;95655.88;4986435;28;20195;-76
2023/04/01 11:02:13;;;;;;;13.30;4.40;;;;;;;17.20;56.85;95650.16;4986402;28;20206;-73
2023/04/01 11:05:20;;;;;;;10.20;4.07;;;;;;;17.42;57.27;95644.53;5067577;28;20333;-79
2023/04/01 11:07:59;;;;;;;11.10;4.70;;;;;;;17.02;58.38;95633.56;5050241;28;20278;-77
2023/04/01 11:11:14;;;;;;;9.27;4.13;;;;;;;17.17;58.76;95623.44;5050475;28;20189;-76
2023/04/01 11:14:00;;;;;;;11.53;4.37;;;;;;;17.36;58.55;95626.81;5049368;28;20189;-78
2023/04/01 11:16:55;;;;;;;9.40;4.70;;;;;;;17.54;57.15;95593.66;5083374;28;20186;-78
2023/04/01 11:19:22;;;;;;;12.57;4.73;;;;;;;18.05;56.82;95619.22;5051918;28;20689;-76
2023/04/01 11:21:49;;;;;;;8.50;4.23;;;;;;;18.02;56.92;95618.69;5033784;28;20802;-80
2023/04/01 11:24:33;;;;;;;11.43;4.27;;;;;;;17.80;57.45;95607.66;5049937;28;20187;-78
2023/04/01 11:27:41;;;;;;;12.77;4.40;;;;;;;17.58;58.03;95589.78;5049836;28;20194;-78
2023/04/01 11:30:46;;;;;;;10.37;4.73;;;;;;;17.58;58.69;95562.75;5049866;28;20198;-78
2023/04/01 11:33:20;;;;;;;6.40;3.97;;;;;;;17.32;59.74;95557.41;5052626;28;20275;-76
2023/04/01 11:35:53;;;;;;;8.00;4.03;;;;;;;17.40;58.47;95539.16;5067075;28;20246;-78
2023/04/01 11:39:03;;;;;;;14.57;4.40;;;;;;;17.53;58.91;95523.97;5065464;28;20198;-79
2023/04/01 11:42:03;;;;;;;16.17;4.87;;;;;;;17.81;57.69;95522.06;5067419;28;20201;-77
2023/04/01 11:45:27;;;;;;;10.60;5.03;;;;;;;17.98;57.51;95538.75;5069194;28;20186;-77
2023/04/01 11:48:27;;;;;;;7.67;4.37;;;;;;;17.73;58.32;95517.59;5061897;28;20230;-77
2023/04/01 11:51:01;;;;;;;9.43;4.00;;;;;;;17.95;58.01;95533.81;5048411;28;20202;-78
2023/04/01 11:53:58;;;;;;;10.40;3.50;;;;;;;17.60;58.57;95540.69;5055215;28;20682;-76
2023/04/01 11:56:54;;;;;;;8.97;3.93;;;;;;;17.58;58.69;95545.28;5068547;28;20195;-77
2023/04/01 11:59:52;;;;;;;7.27;3.73;;;;;;;17.57;58.74;95506.16;5069020;28;20225;-77
2023/04/01 12:02:56;;;;;;;9.30;4.07;;;;;;;17.81;58.39;95530.75;5069635;28;20217;-75
2023/04/01 12:05:34;;;;;;;11.53;4.63;;;;;;;18.04;57.61;95497.03;5086791;28;20668;-78
2023/04/01 12:08:11;;;;;;;9.97;4.23;;;;;;;18.19;57.46;95515.66;5093601;28;20194;-78
2023/04/01 12:11:27;;;;;;;9.17;4.10;;;;;;;18.40;57.37;95519.56;5088306;28;20240;-79
2023/04/01 12:14:14;;;;;;;8.43;4.83;;;;;;;18.47;57.45;95514.53;5041638;28;20203;-74
2023/04/01 12:16:49;;;;;;;8.17;4.40;;;;;;;18.46;57.42;95507.66;5087040;28;20528;-77
2023/04/01 12:19:58;;;;;;;7.23;4.33;;;;;;;18.05;58.33;95505.75;5087707;28;20197;-78
2023/04/01 12:22:28;;;;;;;8.73;3.87;;;;;;;17.91;58.36;95495.81;5080030;28;20705;-77
2023/04/01 12:25:22;;;;;;;7.40;3.73;;;;;;;18.27;57.22;95494.75;5077576;28;20249;-77
2023/04/01 12:28:22;;;;;;;13.70;3.37;;;;;;;18.50;54.80;95493.28;5081330;28;20197;-79
2023/04/01 12:31:07;;;;;;;9.20;3.13;;;;;;;18.76;54.78;95494.03;5087355;28;20210;-78